createdAt,value
2022-08-17T00:00:15.743Z,40.40
2022-08-17T00:03:00.796Z,40.22
2022-08-17T00:05:35.999Z,39.23
2022-08-17T00:08:03.142Z,40.53
2022-08-17T00:10:30.280Z,39.85
2022-08-17T00:12:59.579Z,38.92
2022-08-17T00:15:26.749Z,39.37
2022-08-17T00:17:53.898Z,37.90
2022-08-17T00:20:30.564Z,39.20
2022-08-17T00:23:03.117Z,39.47
2022-08-17T00:25:36.468Z,39.88
2022-08-17T00:28:04.202Z,39.80
2022-08-17T00:30:52.880Z,40.92
2022-08-17T00:33:20.453Z,40.00
2022-08-17T00:35:48.208Z,39.27
2022-08-17T00:38:18.419Z,38.25
2022-08-17T00:40:47.667Z,39.33
2022-08-17T00:43:21.581Z,39.92
2022-08-17T00:45:49.758Z,44.55
2022-08-17T00:48:30.175Z,36.55
2022-08-17T00:51:12.243Z,26.05
2022-08-17T00:53:41.988Z,24.02
2022-08-17T00:56:11.313Z,28.77
2022-08-17T00:58:38.843Z,35.50
2022-08-17T01:01:07.268Z,42.83
2022-08-17T01:03:36.415Z,45.22
2022-08-17T01:06:05.362Z,44.97
2022-08-17T01:08:33.027Z,47.15
2022-08-17T01:11:06.363Z,47.10
2022-08-17T01:13:41.434Z,49.78
2022-08-17T01:16:08.879Z,49.85
2022-08-17T01:18:38.441Z,50.53
2022-08-17T01:21:12.324Z,51.10
2022-08-17T01:23:42.346Z,49.92
2022-08-17T01:26:09.411Z,49.45
2022-08-17T01:28:54.289Z,50.78
2022-08-17T01:31:23.319Z,48.28
2022-08-17T01:33:50.374Z,50.70
2022-08-17T01:36:17.470Z,49.45
2022-08-17T01:38:44.505Z,48.97
2022-08-17T01:41:14.271Z,49.63
2022-08-17T01:43:50.359Z,48.53
2022-08-17T01:46:21.736Z,50.65
2022-08-17T01:48:48.839Z,50.35
2022-08-17T01:51:16.345Z,49.83
2022-08-17T01:53:46.697Z,49.92
2022-08-17T01:56:15.772Z,51.17
2022-08-17T01:58:43.332Z,49.75
2022-08-17T02:01:11.567Z,50.00
2022-08-17T02:03:39.272Z,49.03
2022-08-17T02:06:27.037Z,49.72
2022-08-17T02:09:01.901Z,47.25
2022-08-17T02:11:30.487Z,46.88
2022-08-17T02:14:03.114Z,45.85
2022-08-17T02:16:37.441Z,49.15
2022-08-17T02:19:10.587Z,48.92
2022-08-17T02:21:38.509Z,47.30
2022-08-17T02:24:07.386Z,47.90
2022-08-17T02:26:34.579Z,48.03
2022-08-17T02:29:01.997Z,46.28
2022-08-17T02:31:30.979Z,46.73
2022-08-17T02:34:04.417Z,48.80
2022-08-17T02:36:33.142Z,46.67
2022-08-17T02:39:04.514Z,45.75
2022-08-17T02:41:31.617Z,46.30
2022-08-17T02:43:58.789Z,47.90
2022-08-17T02:46:26.479Z,46.85
2022-08-17T02:48:56.563Z,47.80
2022-08-17T02:51:23.676Z,46.08
2022-08-17T02:53:53.606Z,44.75
2022-08-17T02:56:40.744Z,45.50
2022-08-17T02:59:07.814Z,44.50
2022-08-17T03:01:35.045Z,44.97
2022-08-17T03:04:04.117Z,43.83
2022-08-17T03:06:31.774Z,42.92
2022-08-17T03:08:58.844Z,44.63
2022-08-17T03:11:25.942Z,44.90
2022-08-17T03:13:53.071Z,43.73
2022-08-17T03:16:23.159Z,44.17
2022-08-17T03:18:50.258Z,44.20
2022-08-17T03:21:17.317Z,43.20
2022-08-17T03:23:44.371Z,42.53
2022-08-17T03:26:16.296Z,41.67
2022-08-17T03:28:44.564Z,41.67
2022-08-17T03:31:11.600Z,41.72
2022-08-17T03:33:38.703Z,40.22
2022-08-17T03:36:06.846Z,38.58
2022-08-17T03:38:39.236Z,38.15
2022-08-17T03:41:07.928Z,34.55
2022-08-17T03:43:35.105Z,34.92
2022-08-17T03:46:34.066Z,34.60
2022-08-17T03:49:24.815Z,34.10
2022-08-17T03:52:12.962Z,31.23
2022-08-17T03:55:02.368Z,31.50
2022-08-17T03:57:29.811Z,31.15
2022-08-17T03:59:57.073Z,32.22
2022-08-17T04:02:28.969Z,30.05
2022-08-17T04:04:56.180Z,30.00
2022-08-17T04:07:25.031Z,29.40
2022-08-17T04:09:52.262Z,29.35
2022-08-17T04:12:21.083Z,28.13
2022-08-17T04:14:54.896Z,28.50
2022-08-17T04:17:23.447Z,28.23
2022-08-17T04:19:50.650Z,29.93
2022-08-17T04:22:34.273Z,29.70
2022-08-17T04:25:06.807Z,29.90
2022-08-17T04:27:39.958Z,29.38
2022-08-17T04:30:07.397Z,29.45
2022-08-17T04:32:59.307Z,30.60
2022-08-17T04:35:34.575Z,31.13
2022-08-17T04:38:02.170Z,31.23
2022-08-17T04:40:48.252Z,31.10
2022-08-17T04:43:22.715Z,33.15
2022-08-17T04:45:55.687Z,31.70
2022-08-17T04:48:23.770Z,32.08
2022-08-17T04:51:02.532Z,33.92
2022-08-17T04:53:32.707Z,33.17
2022-08-17T04:55:59.767Z,33.20
2022-08-17T04:58:30.010Z,33.88
2022-08-17T05:00:57.104Z,34.40
2022-08-17T05:03:24.184Z,34.42
2022-08-17T05:05:51.387Z,34.90
2022-08-17T05:08:19.353Z,35.28
2022-08-17T05:10:49.562Z,35.90
2022-08-17T05:13:21.399Z,35.10
2022-08-17T05:15:49.387Z,34.50
2022-08-17T05:18:27.156Z,35.28
2022-08-17T05:20:54.773Z,34.77
2022-08-17T05:23:22.846Z,35.35
2022-08-17T05:25:59.294Z,36.10
2022-08-17T05:28:28.006Z,35.13
2022-08-17T05:30:57.872Z,36.53
2022-08-17T05:33:26.487Z,36.30
2022-08-17T05:35:55.947Z,36.17
2022-08-17T05:38:24.246Z,35.03
2022-08-17T05:40:53.134Z,34.47
2022-08-17T05:43:30.461Z,34.78
2022-08-17T05:46:17.991Z,34.45
2022-08-17T05:48:59.107Z,35.25
2022-08-17T05:51:28.953Z,32.05
2022-08-17T05:54:14.607Z,32.15
2022-08-17T05:57:00.496Z,32.80
2022-08-17T05:59:32.608Z,32.90
2022-08-17T06:02:16.282Z,31.92
2022-08-17T06:05:01.274Z,33.13
2022-08-17T06:07:48.443Z,32.40
2022-08-17T06:10:25.807Z,31.05
2022-08-17T06:13:00.126Z,31.23
2022-08-17T06:15:36.778Z,32.40
2022-08-17T06:18:06.061Z,30.90
2022-08-17T06:20:38.017Z,30.92
2022-08-17T06:23:11.656Z,30.17
2022-08-17T06:25:45.007Z,31.27
2022-08-17T06:28:19.151Z,30.83
2022-08-17T06:30:59.790Z,28.70
2022-08-17T06:33:32.112Z,29.38
2022-08-17T06:36:02.985Z,30.42
2022-08-17T06:38:44.209Z,29.63
2022-08-17T06:41:29.828Z,28.52
2022-08-17T06:44:43.134Z,28.98
2022-08-17T06:47:11.012Z,28.45
2022-08-17T06:50:01.319Z,27.65
2022-08-17T06:52:46.650Z,28.42
2022-08-17T06:55:21.464Z,28.20
2022-08-17T06:57:51.967Z,28.50
2022-08-17T07:00:22.212Z,27.38
2022-08-17T07:03:11.096Z,26.98
2022-08-17T07:05:42.681Z,26.55
2022-08-17T07:08:19.143Z,26.73
2022-08-17T07:10:57.136Z,24.40
2022-08-17T07:13:34.046Z,24.27
2022-08-17T07:16:12.465Z,23.77
2022-08-17T07:18:39.605Z,24.60
2022-08-17T07:21:12.951Z,24.05
2022-08-17T07:23:51.005Z,23.95
2022-08-17T07:26:18.057Z,22.90
2022-08-17T07:28:45.520Z,23.40
2022-08-17T07:31:14.317Z,21.98
2022-08-17T07:34:05.447Z,22.00
2022-08-17T07:36:34.102Z,20.67
2022-08-17T07:39:05.440Z,21.08
2022-08-17T07:41:57.941Z,20.95
2022-08-17T07:44:27.053Z,20.77
2022-08-17T07:47:13.132Z,19.98
2022-08-17T07:49:41.615Z,19.65
2022-08-17T07:52:50.484Z,19.88
2022-08-17T07:55:27.472Z,19.45
2022-08-17T07:57:58.982Z,19.90
2022-08-17T08:00:31.744Z,19.50
2022-08-17T08:03:02.858Z,20.40
2022-08-17T08:05:49.953Z,19.43
2022-08-17T08:08:25.215Z,19.63
2022-08-17T08:11:00.144Z,18.23
2022-08-17T08:13:28.718Z,17.10
2022-08-17T08:15:57.245Z,16.25
2022-08-17T08:18:54.347Z,15.53
2022-08-17T08:21:20.261Z,15.45
2022-08-17T08:24:00.170Z,15.52
2022-08-17T08:26:46.355Z,15.15
2022-08-17T08:29:35.642Z,13.57
2022-08-17T08:32:24.783Z,13.23
2022-08-17T08:35:11.057Z,13.43
2022-08-17T08:37:49.862Z,12.80
2022-08-17T08:40:40.349Z,12.77
2022-08-17T08:43:26.615Z,12.10
2022-08-17T08:46:13.956Z,12.60
2022-08-17T08:48:56.476Z,12.63
2022-08-17T08:51:47.564Z,11.63
2022-08-17T08:54:44.665Z,11.95
2022-08-17T08:57:24.172Z,11.70
2022-08-17T08:59:57.822Z,11.35
2022-08-17T09:02:28.882Z,12.32
2022-08-17T09:05:14.457Z,12.48
2022-08-17T09:07:45.304Z,12.30
2022-08-17T09:10:34.894Z,12.85
2022-08-17T09:13:16.305Z,12.48
2022-08-17T09:15:49.103Z,12.85
2022-08-17T09:19:01.230Z,12.75
2022-08-17T09:21:22.412Z,13.90
2022-08-17T09:23:59.702Z,13.57
2022-08-17T09:26:31.563Z,13.77
2022-08-17T09:29:02.314Z,12.93
2022-08-17T09:31:35.471Z,12.98
2022-08-17T09:34:16.657Z,13.30
2022-08-17T09:37:01.239Z,14.00
2022-08-17T09:39:33.626Z,14.20
2022-08-17T09:42:19.574Z,13.80
2022-08-17T09:44:53.368Z,15.07
2022-08-17T09:47:23.245Z,14.82
2022-08-17T09:49:53.597Z,14.33
2022-08-17T09:52:20.715Z,14.45
2022-08-17T09:54:52.069Z,13.50
2022-08-17T09:57:31.071Z,11.10
2022-08-17T10:00:16.446Z,8.80
2022-08-17T10:03:04.456Z,10.40
2022-08-17T10:05:41.791Z,9.65
2022-08-17T10:08:16.589Z,10.00
2022-08-17T10:11:00.087Z,11.68
2022-08-17T10:13:36.159Z,14.50
2022-08-17T10:16:11.524Z,13.57
2022-08-17T10:19:03.351Z,10.80
2022-08-17T10:21:51.015Z,16.30
2022-08-17T10:25:21.639Z,17.48
2022-08-17T10:28:19.737Z,18.77
2022-08-17T10:30:51.149Z,19.50
2022-08-17T10:33:23.414Z,12.98
2022-08-17T10:36:10.931Z,20.00
2022-08-17T10:38:48.046Z,20.08
2022-08-17T10:41:39.676Z,19.33
2022-08-17T10:44:40.391Z,20.23
2022-08-17T10:47:14.505Z,21.30
2022-08-17T10:49:49.525Z,20.65
2022-08-17T10:52:22.900Z,21.33
2022-08-17T10:54:58.427Z,21.70
2022-08-17T10:57:28.740Z,21.80
2022-08-17T10:59:56.865Z,23.15
2022-08-17T11:02:29.152Z,22.20
2022-08-17T11:05:07.284Z,23.10
2022-08-17T11:07:37.034Z,22.38
2022-08-17T11:10:19.538Z,21.50
2022-08-17T11:13:02.627Z,21.42
2022-08-17T11:15:39.125Z,22.55
2022-08-17T11:18:24.878Z,23.00
2022-08-17T11:21:15.320Z,23.05
2022-08-17T11:24:02.770Z,24.13
2022-08-17T11:26:32.015Z,24.73
2022-08-17T11:29:02.563Z,26.20
2022-08-17T11:31:42.444Z,25.67
2022-08-17T11:34:10.565Z,27.42
2022-08-17T11:36:53.840Z,27.10
2022-08-17T11:39:40.771Z,26.23
2022-08-17T11:42:12.218Z,27.65
2022-08-17T11:44:42.151Z,25.63
2022-08-17T11:47:37.155Z,25.48
2022-08-17T11:50:38.074Z,27.87
2022-08-17T11:53:05.981Z,27.10
2022-08-17T11:55:40.565Z,27.98
2022-08-17T11:58:29.006Z,27.77
2022-08-17T12:01:02.829Z,29.17
2022-08-17T12:03:33.297Z,28.38
2022-08-17T12:06:03.528Z,29.17
2022-08-17T12:08:33.441Z,28.27
2022-08-17T12:12:04.645Z,30.50
2022-08-17T12:14:21.265Z,29.17
2022-08-17T12:17:12.320Z,27.87
2022-08-17T12:19:49.586Z,26.47
2022-08-17T12:22:27.159Z,24.70
2022-08-17T12:24:57.017Z,24.40
2022-08-17T12:28:04.441Z,25.15
2022-08-17T12:30:15.477Z,24.75
2022-08-17T12:32:47.436Z,24.70
2022-08-17T12:35:29.562Z,25.27
2022-08-17T12:37:57.901Z,25.13
2022-08-17T12:40:27.073Z,24.63
2022-08-17T12:43:21.865Z,22.65
2022-08-17T12:46:01.068Z,23.02
2022-08-17T12:48:40.484Z,22.92
2022-08-17T12:51:26.544Z,22.15
2022-08-17T12:53:55.522Z,24.40
2022-08-17T12:56:22.642Z,23.50
2022-08-17T12:58:55.519Z,23.48
2022-08-17T13:01:24.994Z,22.63
2022-08-17T13:03:53.194Z,22.10
2022-08-17T13:06:31.440Z,21.88
2022-08-17T13:09:08.879Z,23.70
2022-08-17T13:11:35.973Z,22.83
2022-08-17T13:14:09.868Z,21.50
2022-08-17T13:16:37.098Z,21.63
2022-08-17T13:19:15.068Z,21.25
2022-08-17T13:21:50.046Z,21.35
2022-08-17T13:24:19.240Z,22.13
2022-08-17T13:26:47.902Z,21.52
2022-08-17T13:29:23.772Z,22.03
2022-08-17T13:31:56.704Z,21.90
2022-08-17T13:34:34.074Z,23.48
2022-08-17T13:37:29.630Z,22.33
2022-08-17T13:39:56.781Z,23.13
2022-08-17T13:42:52.339Z,22.50
2022-08-17T13:45:39.593Z,22.80
2022-08-17T13:48:12.394Z,23.13
2022-08-17T13:50:50.414Z,23.67
2022-08-17T13:53:26.578Z,24.60
2022-08-17T13:55:55.588Z,24.05
2022-08-17T13:58:28.692Z,23.63
2022-08-17T14:00:56.304Z,24.63
2022-08-17T14:03:24.079Z,24.33
2022-08-17T14:05:52.530Z,25.48
2022-08-17T14:08:22.182Z,25.10
2022-08-17T14:10:57.098Z,26.73
2022-08-17T14:13:24.142Z,26.63
2022-08-17T14:15:54.989Z,27.20
2022-08-17T14:18:35.601Z,28.00
2022-08-17T14:21:10.796Z,26.87
2022-08-17T14:23:40.142Z,27.85
2022-08-17T14:26:10.785Z,26.98
2022-08-17T14:28:45.924Z,27.93
2022-08-17T14:31:22.506Z,27.35
2022-08-17T14:33:49.573Z,23.52
2022-08-17T14:36:16.629Z,30.05
2022-08-17T14:38:52.562Z,27.63
2022-08-17T14:41:22.200Z,29.20
2022-08-17T14:43:50.069Z,30.15
2022-08-17T14:46:17.241Z,27.02
2022-08-17T14:48:51.730Z,22.38
2022-08-17T14:51:23.236Z,30.10
2022-08-17T14:53:51.027Z,23.65
2022-08-17T14:56:18.124Z,24.55
2022-08-17T14:58:45.677Z,30.90
2022-08-17T15:01:13.598Z,31.38
2022-08-17T15:03:42.171Z,30.27
2022-08-17T15:06:14.494Z,22.40
2022-08-17T15:08:44.066Z,22.58
2022-08-17T15:11:14.225Z,23.00
2022-08-17T15:13:52.279Z,22.42
2022-08-17T15:16:20.587Z,21.33
2022-08-17T15:18:49.015Z,23.30
2022-08-17T15:21:16.080Z,22.55
2022-08-17T15:23:43.150Z,22.77
2022-08-17T15:26:12.736Z,25.88
2022-08-17T15:28:39.791Z,23.92
2022-08-17T15:31:07.883Z,31.67
2022-08-17T15:33:35.039Z,26.23
2022-08-17T15:36:06.683Z,29.90
2022-08-17T15:38:36.697Z,26.40
2022-08-17T15:41:04.308Z,25.70
2022-08-17T15:43:32.694Z,26.55
2022-08-17T15:46:10.445Z,26.77
2022-08-17T15:48:41.622Z,28.13
2022-08-17T15:51:13.591Z,27.95
2022-08-17T15:53:41.426Z,28.02
2022-08-17T15:56:11.327Z,27.30
2022-08-17T15:58:40.019Z,27.63
2022-08-17T16:01:17.020Z,26.30
2022-08-17T16:04:04.680Z,25.23
2022-08-17T16:06:36.943Z,24.30
2022-08-17T16:09:04.469Z,27.02
2022-08-17T16:11:31.659Z,28.95
2022-08-17T16:13:58.759Z,23.17
2022-08-17T16:16:26.139Z,28.52
2022-08-17T16:18:54.606Z,28.52
2022-08-17T16:21:39.331Z,24.75
2022-08-17T16:24:13.280Z,30.85
2022-08-17T16:26:40.585Z,28.83
2022-08-17T16:29:07.795Z,28.60
2022-08-17T16:31:35.987Z,29.13
2022-08-17T16:34:17.045Z,29.42
2022-08-17T16:36:53.554Z,27.02
2022-08-17T16:39:24.053Z,29.83
2022-08-17T16:41:51.175Z,30.52
2022-08-17T16:44:19.425Z,30.03
2022-08-17T16:46:47.276Z,30.30
2022-08-17T16:49:35.841Z,28.73
2022-08-17T16:52:03.267Z,28.42
2022-08-17T16:54:30.425Z,28.40
2022-08-17T16:56:57.497Z,25.92
2022-08-17T16:59:38.846Z,28.52
2022-08-17T17:02:12.593Z,30.02
2022-08-17T17:04:43.522Z,26.77
2022-08-17T17:07:13.353Z,29.03
2022-08-17T17:09:41.988Z,27.35
2022-08-17T17:12:17.155Z,25.43
2022-08-17T17:14:48.352Z,30.10
2022-08-17T17:17:33.564Z,29.63
2022-08-17T17:20:07.945Z,24.00
2022-08-17T17:22:53.107Z,23.50
2022-08-17T17:25:30.091Z,29.45
2022-08-17T17:28:08.232Z,29.73
2022-08-17T17:30:44.903Z,30.02
2022-08-17T17:33:34.089Z,30.15
2022-08-17T17:36:06.863Z,29.70
2022-08-17T17:38:39.310Z,29.77
2022-08-17T17:41:09.267Z,31.60
2022-08-17T17:43:40.480Z,32.95
2022-08-17T17:46:28.085Z,32.30
2022-08-17T17:48:57.043Z,31.45
2022-08-17T17:52:03.667Z,30.88
2022-08-17T17:54:23.331Z,29.98
2022-08-17T17:57:03.875Z,29.08
2022-08-17T17:59:44.085Z,29.08
2022-08-17T18:02:34.116Z,29.15
2022-08-17T18:05:03.912Z,28.05
2022-08-17T18:07:35.803Z,29.35
2022-08-17T18:10:06.008Z,28.63
2022-08-17T18:12:47.016Z,29.08
2022-08-17T18:15:16.847Z,28.65
2022-08-17T18:18:02.580Z,29.67
2022-08-17T18:20:43.209Z,29.10
2022-08-17T18:23:18.444Z,29.05
2022-08-17T18:25:48.486Z,30.08
2022-08-17T18:28:39.728Z,29.25
2022-08-17T18:31:38.784Z,28.63
2022-08-17T18:34:45.812Z,28.92
2022-08-17T18:37:12.672Z,27.70
2022-08-17T18:39:44.170Z,28.10
2022-08-17T18:42:23.748Z,27.77
2022-08-17T18:44:54.957Z,27.42
2022-08-17T18:47:27.037Z,27.75
2022-08-17T18:49:57.402Z,26.80
2022-08-17T18:52:27.786Z,26.77
2022-08-17T18:55:00.949Z,27.52
2022-08-17T18:57:50.737Z,27.42
2022-08-17T19:00:20.283Z,28.33
2022-08-17T19:03:03.547Z,29.05
2022-08-17T19:05:37.287Z,29.63
2022-08-17T19:08:22.489Z,29.00
2022-08-17T19:10:51.556Z,30.40
2022-08-17T19:13:24.374Z,29.57
2022-08-17T19:16:11.566Z,31.17
2022-08-17T19:18:49.835Z,32.63
2022-08-17T19:21:49.194Z,32.33
2022-08-17T19:24:19.459Z,33.55
2022-08-17T19:26:55.091Z,33.63
2022-08-17T19:29:35.395Z,34.25
2022-08-17T19:32:02.600Z,34.10
2022-08-17T19:34:33.836Z,35.95
2022-08-17T19:37:14.517Z,35.40
2022-08-17T19:39:50.521Z,36.35
2022-08-17T19:42:26.307Z,35.55
2022-08-17T19:45:03.140Z,35.83
2022-08-17T19:47:53.732Z,37.50
2022-08-17T19:50:29.739Z,39.15
2022-08-17T19:52:59.602Z,30.23
2022-08-17T19:55:34.292Z,28.67
2022-08-17T19:58:04.319Z,27.42
2022-08-17T20:00:31.543Z,28.57
2022-08-17T20:03:08.733Z,27.63
2022-08-17T20:06:08.621Z,26.58
2022-08-17T20:08:26.890Z,30.98
2022-08-17T20:10:56.099Z,29.60
2022-08-17T20:13:33.151Z,27.92
2022-08-17T20:16:02.794Z,32.10
2022-08-17T20:18:36.644Z,31.48
2022-08-17T20:21:22.528Z,27.35
2022-08-17T20:24:08.208Z,27.83
2022-08-17T20:26:49.094Z,29.58
2022-08-17T20:29:37.788Z,32.35
2022-08-17T20:32:19.082Z,31.25
2022-08-17T20:34:47.165Z,30.45
2022-08-17T20:37:14.411Z,30.75
2022-08-17T20:39:45.900Z,29.30
2022-08-17T20:42:16.063Z,35.72
2022-08-17T20:44:43.717Z,37.45
2022-08-17T20:47:14.590Z,26.88
2022-08-17T20:49:44.723Z,31.00
2022-08-17T20:52:13.954Z,25.95
2022-08-17T20:55:08.583Z,29.80
2022-08-17T20:57:36.122Z,29.25
2022-08-17T21:00:15.226Z,26.02
2022-08-17T21:02:46.662Z,25.15
2022-08-17T21:05:34.579Z,24.27
2022-08-17T21:08:13.073Z,24.23
2022-08-17T21:10:42.729Z,25.80
2022-08-17T21:13:13.416Z,23.20
2022-08-17T21:15:44.711Z,22.42
2022-08-17T21:18:23.667Z,26.90
2022-08-17T21:21:14.109Z,29.75
2022-08-17T21:23:43.960Z,32.97
2022-08-17T21:26:26.712Z,30.38
2022-08-17T21:29:29.502Z,33.25
2022-08-17T21:32:05.459Z,32.90
2022-08-17T21:34:42.493Z,33.97
2022-08-17T21:37:27.414Z,43.30
2022-08-17T21:40:00.000Z,45.33
2022-08-17T21:42:37.164Z,36.33
2022-08-17T21:45:20.580Z,37.23
2022-08-17T21:47:52.011Z,37.73
2022-08-17T21:50:24.081Z,33.20
2022-08-17T21:53:08.187Z,35.17
2022-08-17T21:59:29.557Z,31.33
2022-08-17T22:05:54.101Z,29.80
2022-08-17T22:08:38.037Z,27.67
2022-08-17T22:11:05.131Z,29.05
2022-08-17T22:13:32.592Z,27.98
2022-08-17T22:16:27.754Z,28.80
2022-08-17T22:19:00.768Z,28.70
2022-08-17T22:21:27.906Z,27.63
2022-08-17T22:24:16.299Z,25.75
2022-08-17T22:27:02.170Z,26.45
2022-08-17T22:29:56.889Z,25.03
2022-08-17T22:32:56.606Z,32.00
2022-08-17T22:35:35.558Z,30.40
2022-08-17T22:38:21.019Z,25.42
2022-08-17T22:40:52.372Z,26.20
2022-08-17T22:43:24.245Z,27.23
2022-08-17T22:45:55.317Z,27.05
2022-08-17T22:48:27.502Z,25.17
2022-08-17T22:51:04.070Z,27.70
2022-08-17T22:54:04.617Z,26.10
2022-08-17T22:56:50.487Z,24.73
2022-08-17T22:59:57.492Z,26.02
2022-08-17T23:02:32.406Z,32.17
2022-08-17T23:05:12.683Z,31.43
2022-08-17T23:07:40.405Z,32.40
2022-08-17T23:10:12.198Z,31.30
2022-08-17T23:12:40.910Z,32.70
2022-08-17T23:15:14.241Z,32.45
2022-08-17T23:17:45.826Z,32.88
2022-08-17T23:20:13.907Z,31.73
2022-08-17T23:22:52.577Z,31.65
2022-08-17T23:25:27.653Z,31.48
2022-08-17T23:28:02.452Z,31.77
2022-08-17T23:30:34.197Z,29.35
2022-08-17T23:33:02.843Z,30.60
2022-08-17T23:35:39.637Z,29.13
2022-08-17T23:38:08.172Z,29.85
2022-08-17T23:40:35.492Z,28.92
2022-08-17T23:43:05.898Z,26.98
2022-08-17T23:45:39.962Z,26.83
2022-08-17T23:48:09.024Z,27.33
2022-08-17T23:50:36.315Z,27.02
2022-08-17T23:53:03.399Z,27.30
2022-08-17T23:55:34.535Z,25.97
2022-08-17T23:58:02.686Z,27.42
